Time;durP1;ratioP1;P1;durP2;ratioP2;P2;SDS_P1;SDS_P2;PMS_P1;PMS_P2;Temp;Humidity;BMP_temperature;BMP_pressure;BME280_temperature;BME280_humidity;BME280_pressure;Samples;Min_cycle;Max_cycle;Signal;HPM_P1;HPM_P2
2022/02/01 00:03:35;;;;;;;3.08;1.35;;;;;;;;;;5054044;28;20079;-46
2022/02/01 00:08:42;;;;;;;2.25;0.88;;;;;;;;;;5054140;28;20048;-47
2022/02/01 00:13:50;;;;;;;2.83;0.85;;;;;;;;;;5054226;28;20033;-46
2022/02/01 00:38:27;;;;;;;3.05;0.82;;;;;;;;;;5053530;28;20052;-44
2022/02/01 00:40:55;;;;;;;3.60;1.13;;;;;;;;;;5053285;28;20060;-45
2022/02/01 00:43:22;;;;;;;6.32;1.33;;;;;;;;;;5053553;28;20036;-43
2022/02/01 00:45:48;;;;;;;4.10;1.25;;;;;;;;;;5053290;28;20029;-44
2022/02/01 00:48:14;;;;;;;4.50;1.17;;;;;;;;;;5053160;28;20037;-44
2022/02/01 00:50:40;;;;;;;2.40;0.90;;;;;;;;;;5053418;28;20036;-44
2022/02/01 00:53:07;;;;;;;3.97;0.50;;;;;;;;;;5053337;28;20029;-44
2022/02/01 00:55:33;;;;;;;6.50;1.42;;;;;;;;;;5053117;28;20087;-44
2022/02/01 00:57:59;;;;;;;2.42;0.70;;;;;;;;;;5053104;28;20468;-44
2022/02/01 01:00:25;;;;;;;3.72;1.13;;;;;;;;;;5053017;28;20087;-43
2022/02/01 01:02:51;;;;;;;4.55;1.27;;;;;;;;;;5052712;28;20045;-44
2022/02/01 01:05:17;;;;;;;3.40;1.10;;;;;;;;;;5052855;28;20082;-44
2022/02/01 01:07:43;;;;;;;3.42;1.00;;;;;;;;;;5052360;28;20032;-44
2022/02/01 01:10:11;;;;;;;2.75;0.80;;;;;;;;;;5053103;28;20422;-44
2022/02/01 01:12:46;;;;;;;3.45;0.60;;;;;;;;;;5053077;28;20063;-44
2022/02/01 01:15:28;;;;;;;2.53;0.88;;;;;;;;;;5052921;28;20515;-44
2022/02/01 01:44:51;;;;;;;1.83;0.65;;;;;;;;;;5052650;28;20083;-44
2022/02/01 01:55:34;;;;;;;4.60;1.38;;;;;;;;;;5052878;28;20044;-47
2022/02/01 01:58:00;;;;;;;4.22;0.95;;;;;;;;;;5052177;28;20082;-46
2022/02/01 02:00:44;;;;;;;2.60;0.70;;;;;;;;;;5052389;28;20028;-46
2022/02/01 02:03:10;;;;;;;2.97;1.00;;;;;;;;;;5052017;28;20064;-46
2022/02/01 02:05:36;;;;;;;5.95;0.80;;;;;;;;;;5052123;28;20025;-46
2022/02/01 02:08:03;;;;;;;4.38;0.68;;;15.00;88.50;;;;;;5052085;28;20056;-47
2022/02/01 02:10:33;;;;;;;2.22;0.60;;;;;;;;;;5052159;28;20040;-48
2022/02/01 02:14:17;;;;;;;6.15;1.02;;;15.00;82.00;;;;;;5052149;28;20021;-46
2022/02/01 02:15:59;;;;;;;2.35;1.23;;;15.00;88.80;;;;;;5052009;28;20439;-46
2022/02/01 02:18:27;;;;;;;2.45;0.95;;;15.00;88.60;;;;;;5052156;28;20384;-46
2022/02/01 02:20:54;;;;;;;3.25;0.80;;;;;;;;;;5054411;28;20063;-47
2022/02/01 02:23:21;;;;;;;1.85;0.70;;;;;;;;;;5056031;28;20059;-47
2022/02/01 02:25:47;;;;;;;2.10;0.80;;;;;;;;;;5055940;28;20058;-47
2022/02/01 02:28:15;;;;;;;1.58;0.50;;;;;;;;;;5055965;28;20036;-46
2022/02/01 02:30:45;;;;;;;2.28;0.60;;;15.00;89.40;;;;;;5056240;28;20033;-46
2022/02/01 02:33:14;;;;;;;3.10;0.93;;;15.00;87.30;;;;;;5055905;28;20029;-46
2022/02/01 02:35:51;;;;;;;1.23;0.68;;;14.90;82.40;;;;;;5056028;28;20044;-46
2022/02/01 02:38:26;;;;;;;2.17;0.77;;;;;;;;;;5054450;28;20475;-46
2022/02/01 02:46:03;;;;;;;1.55;0.68;;;;;;;;;;5055907;28;20166;-47
2022/02/01 02:48:29;;;;;;;4.05;1.50;;;;;;;;;;5055519;28;20029;-46
2022/02/01 02:50:55;;;;;;;2.13;0.70;;;;;;;;;;5055473;28;20467;-46
2022/02/01 02:53:21;;;;;;;1.27;0.50;;;;;;;;;;5055393;28;20413;-46
2022/02/01 02:55:47;;;;;;;1.13;0.32;;;;;;;;;;5055348;28;20463;-46
2022/02/01 02:58:13;;;;;;;3.35;1.05;;;;;;;;;;5055325;28;20045;-47
2022/02/01 03:00:39;;;;;;;1.73;0.80;;;;;;;;;;5055233;28;20097;-47
2022/02/01 03:03:05;;;;;;;2.35;0.70;;;;;;;;;;5055052;28;20048;-47
2022/02/01 03:05:31;;;;;;;2.63;1.00;;;;;;;;;;5055239;28;20104;-47
2022/02/01 03:07:57;;;;;;;2.58;0.80;;;;;;;;;;5055146;28;20037;-46
2022/02/01 03:10:23;;;;;;;2.78;0.82;;;;;;;;;;5055066;28;20441;-46
2022/02/01 03:15:45;;;;;;;1.75;0.73;;;;;;;;;;5055362;28;20067;-47
2022/02/01 03:20:51;;;;;;;1.70;0.60;;;;;;;;;;5055020;28;20079;-47
2022/02/01 03:23:17;;;;;;;2.88;0.55;;;;;;;;;;5055208;28;20033;-46
2022/02/01 03:25:43;;;;;;;4.43;0.57;;;;;;;;;;5054891;28;20025;-46
2022/02/01 03:28:09;;;;;;;2.88;0.75;;;;;;;;;;5054706;28;20472;-46
2022/02/01 03:30:35;;;;;;;2.78;1.02;;;;;;;;;;5054396;28;20033;-47
2022/02/01 03:33:01;;;;;;;2.63;0.63;;;;;;;;;;5054589;28;20033;-47
2022/02/01 03:35:27;;;;;;;2.08;0.52;;;;;;;;;;5054646;28;20479;-46
2022/02/01 03:37:53;;;;;;;1.65;0.60;;;;;;;;;;5054533;28;20453;-46
2022/02/01 03:40:20;;;;;;;1.98;0.63;;;;;;;;;;5054551;28;20032;-46
2022/02/01 03:42:46;;;;;;;1.73;0.60;;;;;;;;;;5054616;28;20029;-46
2022/02/01 03:45:12;;;;;;;1.92;0.63;;;;;;;;;;5054516;28;20181;-46
2022/02/01 03:47:38;;;;;;;3.22;0.75;;;;;;;;;;5054342;28;20068;-47
2022/02/01 03:50:09;;;;;;;3.60;0.95;;;14.70;89.60;;;;;;5054376;28;20035;-46
2022/02/01 03:52:35;;;;;;;2.47;0.50;;;;;;;;;;5054409;28;20025;-47
2022/02/01 03:55:02;;;;;;;2.58;0.60;;;;;;;;;;5054276;28;20125;-47
2022/02/01 03:57:27;;;;;;;2.80;0.82;;;;;;;;;;5054234;28;20029;-46
2022/02/01 03:59:53;;;;;;;1.88;0.75;;;;;;;;;;5054238;28;20078;-46
2022/02/01 04:02:20;;;;;;;3.10;0.80;;;;;;;;;;5054002;28;20045;-43
2022/02/01 04:04:52;;;;;;;2.90;0.77;;;;;;;;;;5054077;28;20039;-44
2022/02/01 04:07:18;;;;;;;2.72;0.60;;;;;;;;;;5054121;28;20029;-44
2022/02/01 04:09:44;;;;;;;2.50;0.63;;;;;;;;;;5054158;28;20037;-44
2022/02/01 04:12:10;;;;;;;0.95;0.38;;;;;;;;;;5054231;28;20024;-44
2022/02/01 04:14:36;;;;;;;1.60;0.50;;;;;;;;;;5053866;28;20033;-43
2022/02/01 04:17:06;;;;;;;2.00;0.68;;;14.70;89.40;;;;;;5053869;28;20025;-43
2022/02/01 04:19:32;;;;;;;3.05;0.52;;;;;;;;;;5053918;28;20108;-43
2022/02/01 04:22:02;;;;;;;2.70;0.70;;;14.60;89.50;;;;;;5054054;28;20035;-44
2022/02/01 04:24:31;;;;;;;2.33;0.70;;;14.60;89.80;;;;;;5053727;28;20491;-44
2022/02/01 04:26:57;;;;;;;2.22;1.13;;;;;;;;;;5053700;28;20112;-44
2022/02/01 04:29:23;;;;;;;3.45;0.82;;;;;;;;;;5053545;28;20122;-43
2022/02/01 04:31:49;;;;;;;3.17;0.50;;;;;;;;;;5053792;28;20021;-44
2022/02/01 04:34:15;;;;;;;2.65;0.90;;;;;;;;;;5053883;28;20036;-44
2022/02/01 04:36:41;;;;;;;3.08;0.65;;;;;;;;;;5053563;28;20541;-43
2022/02/01 04:39:08;;;;;;;1.80;0.93;;;;;;;;;;5053468;28;20064;-46
2022/02/01 04:41:34;;;;;;;2.47;0.73;;;;;;;;;;5053406;28;20031;-46
2022/02/01 04:44:00;;;;;;;4.40;1.20;;;;;;;;;;5052668;28;20434;-47
2022/02/01 04:46:27;;;;;;;2.17;0.60;;;14.60;89.80;;;;;;5053652;28;20036;-46
2022/02/01 04:48:54;;;;;;;2.28;0.65;;;;;;;;;;5053145;28;20433;-46
2022/02/01 04:51:20;;;;;;;2.28;1.23;;;14.40;89.80;;;;;;5053264;28;20032;-47
2022/02/01 04:53:47;;;;;;;4.05;1.20;;;14.50;89.70;;;;;;5053184;28;20383;-46
2022/02/01 04:56:14;;;;;;;2.60;0.70;;;;;;;;;;5053131;28;20025;-46
2022/02/01 04:58:41;;;;;;;1.77;0.60;;;;;;;;;;5053036;28;20029;-46
2022/02/01 05:01:07;;;;;;;2.40;0.98;;;;;;;;;;5052894;28;20033;-46
2022/02/01 05:03:33;;;;;;;3.00;0.73;;;;;;;;;;5052791;28;20056;-47
2022/02/01 05:06:03;;;;;;;1.83;0.77;;;14.50;89.80;;;;;;5052880;28;20029;-47
2022/02/01 05:08:29;;;;;;;2.60;0.55;;;;;;;;;;5052876;28;20115;-46
2022/02/01 05:10:56;;;;;;;1.83;0.70;;;;;;;;;;5052866;28;20025;-46
2022/02/01 05:16:03;;;;;;;3.85;0.70;;;;;;;;;;5053168;28;20083;-46
2022/02/01 05:18:33;;;;;;;2.03;0.60;;;;;;;;;;5052834;28;20146;-47
2022/02/01 05:21:08;;;;;;;3.35;0.68;;;;;;;;;;5053285;28;20083;-46
2022/02/01 05:23:34;;;;;;;3.78;1.33;;;;;;;;;;5053023;28;20024;-46
2022/02/01 05:26:00;;;;;;;3.67;0.80;;;;;;;;;;5052609;28;20055;-48
2022/02/01 05:28:26;;;;;;;2.15;0.60;;;;;;;;;;5052477;28;20090;-46
2022/02/01 05:30:57;;;;;;;1.50;0.55;;;;;;;;;;5052564;28;20029;-47
2022/02/01 05:33:23;;;;;;;2.03;0.60;;;;;;;;;;5052862;28;20119;-47
2022/02/01 05:35:49;;;;;;;2.35;0.65;;;;;;;;;;5052429;28;20068;-46
2022/02/01 05:38:15;;;;;;;1.70;0.70;;;;;;;;;;5052389;28;20025;-46
2022/02/01 05:40:41;;;;;;;1.58;0.57;;;;;;;;;;5052385;28;20025;-47
2022/02/01 05:43:13;;;;;;;1.65;0.50;;;;;;;;;;5052377;28;20147;-47
2022/02/01 05:45:42;;;;;;;3.10;0.95;;;14.50;90.10;;;;;;5052704;28;20024;-47
2022/02/01 05:48:10;;;;;;;3.28;0.50;;;14.40;90.30;;;;;;5052510;28;20025;-46
2022/02/01 05:50:36;;;;;;;2.78;0.60;;;;;;;;;;5052285;28;20028;-47
2022/02/01 05:53:03;;;;;;;2.65;0.55;;;;;;;;;;5052284;28;20033;-46
2022/02/01 05:55:30;;;;;;;2.03;0.90;;;;;;;;;;5052089;28;20036;-47
2022/02/01 05:57:56;;;;;;;2.47;0.80;;;;;;;;;;5052498;28;20143;-46
2022/02/01 06:00:22;;;;;;;3.30;0.77;;;;;;;;;;5052169;28;20065;-46
2022/02/01 06:02:50;;;;;;;2.53;0.55;;;;;;;;;;5051844;28;20099;-46
2022/02/01 06:05:16;;;;;;;1.38;0.75;;;;;;;;;;5052404;28;20446;-47
2022/02/01 06:07:42;;;;;;;2.55;0.77;;;;;;;;;;5052082;28;20103;-47
2022/02/01 06:10:08;;;;;;;4.20;0.80;;;;;;;;;;5052145;28;20484;-44
2022/02/01 06:12:45;;;;;;;1.75;0.70;;;14.40;84.40;;;;;;5052129;28;20132;-43
2022/02/01 06:15:12;;;;;;;3.47;0.95;;;14.50;90.40;;;;;;5052258;28;20028;-44
2022/02/01 06:17:39;;;;;;;2.28;0.60;;;;;;;;;;5052030;28;20040;-43
2022/02/01 06:20:06;;;;;;;1.80;0.60;;;14.70;87.60;;;;;;5052004;28;20036;-44
2022/02/01 06:22:32;;;;;;;2.80;0.85;;;;;;;;;;5052241;28;20087;-43
2022/02/01 06:24:58;;;;;;;2.80;0.90;;;;;;;;;;5051949;28;20031;-43
2022/02/01 06:27:24;;;;;;;3.28;0.93;;;;;;;;;;5051999;28;20249;-43
2022/02/01 06:29:50;;;;;;;3.55;0.70;;;;;;;;;;5051877;28;20502;-44
2022/02/01 06:32:17;;;;;;;1.15;0.65;;;;;;;;;;5051800;28;20029;-44
2022/02/01 06:34:43;;;;;;;1.75;0.90;;;;;;;;;;5051795;28;20048;-43
2022/02/01 06:37:09;;;;;;;3.97;0.63;;;;;;;;;;5051887;28;20365;-43
2022/02/01 06:39:37;;;;;;;4.55;1.10;;;;;;;;;;5051763;28;20036;-43
2022/02/01 06:42:03;;;;;;;3.90;1.10;;;;;;;;;;5051854;28;20538;-44
2022/02/01 06:44:29;;;;;;;3.80;1.48;;;;;;;;;;5051763;28;20104;-43
2022/02/01 06:46:55;;;;;;;2.97;1.20;;;;;;;;;;5051775;28;20128;-44
2022/02/01 06:49:21;;;;;;;3.70;0.88;;;;;;;;;;5051589;28;20045;-43
2022/02/01 06:51:47;;;;;;;3.08;1.10;;;;;;;;;;5051726;28;20033;-44
2022/02/01 06:54:14;;;;;;;2.90;1.02;;;;;;;;;;5051766;28;20052;-44
2022/02/01 06:56:40;;;;;;;2.47;0.73;;;;;;;;;;5051392;28;20021;-44
2022/02/01 06:59:06;;;;;;;4.32;1.13;;;;;;;;;;5051335;28;20028;-45
2022/02/01 07:01:32;;;;;;;4.50;0.95;;;;;;;;;;5051189;28;20225;-44
2022/02/01 07:03:58;;;;;;;2.97;1.10;;;;;;;;;;5051445;28;20032;-43
2022/02/01 07:06:25;;;;;;;2.38;0.77;;;14.70;89.20;;;;;;5052888;28;20025;-46
2022/02/01 07:08:52;;;;;;;1.55;0.70;;;;;;;;;;5055138;28;20033;-46
2022/02/01 07:11:19;;;;;;;2.45;0.80;;;14.70;90.30;;;;;;5055020;28;20036;-46
2022/02/01 07:13:46;;;;;;;2.00;0.85;;;14.70;89.00;;;;;;5054841;28;20055;-47
2022/02/01 07:16:13;;;;;;;4.28;0.90;;;;;;;;;;5054962;28;20025;-46
2022/02/01 07:18:39;;;;;;;2.90;0.95;;;;;;;;;;5054927;28;20031;-46
2022/02/01 07:21:05;;;;;;;6.93;1.10;;;14.60;87.50;;;;;;5055268;28;20025;-46
2022/02/01 07:23:33;;;;;;;3.42;1.00;;;;;;;;;;5055225;28;20113;-46
2022/02/01 07:25:59;;;;;;;5.57;1.13;;;;;;;;;;5054930;28;20064;-47
2022/02/01 07:28:29;;;;;;;6.85;1.33;;;14.60;85.10;;;;;;5055044;28;20040;-47
2022/02/01 07:30:56;;;;;;;2.60;1.25;;;14.60;89.40;;;;;;5054894;28;20509;-46
2022/02/01 07:33:23;;;;;;;3.53;1.00;;;14.60;90.90;;;;;;5054841;28;20120;-46
2022/02/01 07:35:50;;;;;;;7.25;0.80;;;;;;;;;;5054727;28;20092;-46
2022/02/01 07:38:18;;;;;;;2.33;0.70;;;;;;;;;;5054855;28;20060;-45
2022/02/01 07:40:48;;;;;;;3.17;0.98;;;14.90;90.70;;;;;;5054478;28;20033;-46
2022/02/01 07:43:15;;;;;;;3.97;1.17;;;14.90;88.30;;;;;;5054526;28;20311;-44
2022/02/01 07:45:42;;;;;;;4.05;1.27;;;;;;;;;;5053132;28;20047;-46
2022/02/01 07:48:08;;;;;;;4.90;1.02;;;;;;;;;;5054336;28;20033;-45
2022/02/01 07:50:36;;;;;;;4.90;1.10;;;15.10;88.90;;;;;;5054346;28;20037;-45
2022/02/01 07:53:04;;;;;;;6.07;1.10;;;15.20;88.70;;;;;;5054427;28;20058;-45
2022/02/01 07:55:30;;;;;;;5.65;1.13;;;;;;;;;;5054585;28;20116;-45
2022/02/01 07:57:57;;;;;;;5.57;1.27;;;;;;;;;;5054187;28;20108;-44
2022/02/01 08:00:23;;;;;;;9.35;1.10;;;;;;;;;;5054238;28;20033;-45
2022/02/01 08:02:55;;;;;;;5.18;1.17;;;;;;;;;;5053880;28;20052;-44
2022/02/01 08:05:32;;;;;;;5.40;0.80;;;15.20;90.70;;;;;;5054219;28;20025;-43
2022/02/01 08:08:02;;;;;;;5.07;1.15;;;;;;;;;;5054021;28;20028;-43
2022/02/01 08:10:36;;;;;;;4.70;0.90;;;15.10;88.70;;;;;;5054309;28;20036;-43
2022/02/01 08:13:48;;;;;;;2.92;0.95;;;;;;;;;;5054244;28;20029;-43
2022/02/01 08:16:28;;;;;;;5.93;1.00;;;;;;;;;;5053650;28;20040;-44
2022/02/01 08:21:21;;;;;;;5.13;1.00;;;;;;;;;;5054146;28;20102;-43
2022/02/01 08:23:47;;;;;;;3.50;1.15;;;;;;;;;;5053694;28;20488;-45
2022/02/01 08:26:13;;;;;;;2.45;1.10;;;;;;;;;;5053676;28;20029;-43
2022/02/01 08:28:39;;;;;;;3.63;0.82;;;;;;;;;;5053464;28;20116;-45
2022/02/01 08:31:05;;;;;;;4.75;1.10;;;;;;;;;;5053550;28;20025;-45
2022/02/01 08:33:32;;;;;;;3.22;0.75;;;;;;;;;;5053493;28;20491;-43
2022/02/01 08:35:57;;;;;;;1.98;0.77;;;;;;;;;;5053518;28;20038;-43
2022/02/01 08:38:23;;;;;;;3.28;0.80;;;;;;;;;;5053474;28;20033;-45
2022/02/01 08:40:49;;;;;;;4.20;0.90;;;;;;;;;;5053345;28;20024;-44
2022/02/01 08:43:17;;;;;;;4.45;0.90;;;14.90;91.20;;;;;;5053321;28;20025;-45
2022/02/01 08:45:44;;;;;;;6.25;0.90;;;;;;;;;;5053627;28;20361;-45
2022/02/01 08:48:10;;;;;;;3.22;0.85;;;;;;;;;;5053219;28;20361;-44
2022/02/01 08:50:37;;;;;;;3.65;0.88;;;;;;;;;;5053227;28;20395;-44
2022/02/01 08:53:13;;;;;;;2.53;1.02;;;;;;;;;;5053133;28;20036;-45
2022/02/01 08:55:50;;;;;;;6.80;1.08;;;;;;;;;;5053204;28;20025;-44
2022/02/01 08:58:16;;;;;;;2.20;0.47;;;;;;;;;;5053363;28;20107;-45
2022/02/01 09:00:42;;;;;;;3.42;1.30;;;;;;;;;;5053010;28;20037;-45
2022/02/01 09:03:08;;;;;;;4.20;1.58;;;;;;;;;;5052770;28;20072;-45
2022/02/01 09:05:36;;;;;;;3.17;0.63;;;;;;;;;;5052951;28;20021;-45
2022/02/01 09:08:03;;;;;;;2.08;0.88;;;14.90;90.90;;;;;;5053135;28;20059;-46
2022/02/01 09:10:29;;;;;;;3.05;0.68;;;14.90;90.80;;;;;;5053154;28;20037;-44
2022/02/01 09:12:55;;;;;;;3.28;0.80;;;;;;;;;;5052807;28;20526;-45
2022/02/01 09:15:21;;;;;;;3.38;0.70;;;;;;;;;;5053201;28;20024;-47
2022/02/01 09:17:48;;;;;;;1.98;1.10;;;;;;;;;;5052752;28;20028;-47
2022/02/01 09:20:14;;;;;;;2.03;0.90;;;;;;;;;;5052667;28;20021;-46
2022/02/01 09:22:40;;;;;;;3.40;0.80;;;;;;;;;;5052686;28;20035;-48
2022/02/01 09:25:07;;;;;;;4.10;1.33;;;;;;;;;;5052568;28;20031;-46
2022/02/01 09:27:33;;;;;;;2.88;0.73;;;;;;;;;;5052667;28;20419;-47
2022/02/01 09:29:59;;;;;;;7.38;0.88;;;;;;;;;;5052460;28;20060;-48
2022/02/01 09:32:25;;;;;;;1.38;0.52;;;;;;;;;;5052897;28;20459;-46
2022/02/01 09:34:51;;;;;;;2.95;0.80;;;;;;;;;;5052476;28;20032;-47
2022/02/01 09:37:17;;;;;;;3.00;0.50;;;;;;;;;;5052447;28;20025;-46
2022/02/01 09:39:43;;;;;;;1.98;0.60;;;;;;;;;;5052465;28;20025;-46
2022/02/01 09:42:10;;;;;;;1.90;0.75;;;;;;;;;;5052332;28;20056;-46
2022/02/01 09:44:36;;;;;;;2.95;0.70;;;;;;;;;;5052364;28;20032;-46
2022/02/01 09:47:02;;;;;;;2.45;0.85;;;;;;;;;;5052284;28;20033;-46
2022/02/01 09:49:28;;;;;;;2.47;0.80;;;;;;;;;;5052225;28;20043;-46
2022/02/01 09:51:57;;;;;;;2.60;0.90;;;14.80;91.10;;;;;;5052235;28;20029;-47
2022/02/01 09:54:25;;;;;;;1.23;0.60;;;14.80;91.30;;;;;;5052515;28;20025;-46
2022/02/01 09:56:52;;;;;;;1.33;0.52;;;;;;;;;;5052179;28;20025;-46
2022/02/01 09:59:19;;;;;;;2.45;0.65;;;;;;;;;;5052206;28;20086;-47
2022/02/01 10:01:47;;;;;;;3.55;1.13;;;;;;;;;;5051857;28;20081;-46
2022/02/01 10:04:13;;;;;;;4.20;0.60;;;;;;;;;;5052112;28;20029;-46
2022/02/01 10:06:40;;;;;;;4.45;0.75;;;14.80;90.10;;;;;;5052069;28;20049;-46
2022/02/01 10:09:15;;;;;;;1.05;0.43;;;14.80;91.20;;;;;;5052009;28;20044;-46
2022/02/01 10:11:46;;;;;;;7.18;0.50;;;14.90;86.30;;;;;;5052386;28;20025;-46
2022/02/01 10:14:22;;;;;;;1.98;0.57;;;14.80;91.30;;;;;;5052092;28;20372;-44
2022/02/01 10:16:52;;;;;;;2.05;0.52;;;14.80;90.50;;;;;;5052072;28;20052;-45
2022/02/01 10:19:19;;;;;;;1.83;0.40;;;;;;;;;;5052035;28;20035;-44
2022/02/01 10:21:59;;;;;;;3.08;0.85;;;14.80;86.80;;;;;;5051990;28;20074;-45
2022/02/01 10:24:41;;;;;;;1.80;0.85;;;14.80;86.50;;;;;;5051985;28;20091;-44
2022/02/01 10:27:16;;;;;;;2.05;0.80;;;14.90;86.60;;;;;;5051978;28;20028;-44
2022/02/01 10:30:12;;;;;;;1.80;0.40;;;14.90;86.80;;;;;;5051906;28;20041;-45
2022/02/01 10:38:04;;;;;;;1.33;0.60;;;15.00;86.80;;;;;;5052099;28;20031;-44
2022/02/01 10:40:43;;;;;;;1.52;0.70;;;15.00;86.90;;;;;;5051923;28;20471;-44
2022/02/01 10:43:41;;;;;;;1.75;0.65;;;15.00;87.00;;;;;;5054476;28;20025;-44
2022/02/01 10:46:16;;;;;;;3.53;0.70;;;15.00;91.40;;;;;;5043423;28;20059;-45
2022/02/01 10:48:46;;;;;;;1.73;0.88;;;15.00;86.40;;;;;;5055508;28;20700;-44
2022/02/01 10:51:22;;;;;;;;;;;15.00;91.60;;;;;;5055946;28;20500;-45
2022/02/01 10:53:48;;;;;;;1.98;0.70;;;;;;;;;;5055554;28;20040;-45
2022/02/01 10:56:19;;;;;;;1.23;0.47;;;14.90;91.20;;;;;;5055648;28;20395;-44
2022/02/01 10:58:46;;;;;;;2.33;1.02;;;15.00;91.30;;;;;;5055403;28;20025;-45
2022/02/01 11:01:12;;;;;;;2.15;0.70;;;;;;;;;;5055105;28;20044;-44
2022/02/01 11:03:43;;;;;;;2.53;0.65;;;14.90;86.60;;;;;;5015343;28;20084;-44
2022/02/01 11:06:09;;;;;;;2.60;0.75;;;;;;;;;;5015317;28;20029;-46
2022/02/01 11:08:39;;;;;;;2.67;0.73;;;14.90;91.40;;;;;;5015219;28;20037;-45
2022/02/01 11:11:05;;;;;;;1.73;0.50;;;;;;;;;;5015557;28;20048;-45
2022/02/01 11:13:40;;;;;;;1.80;0.70;;;14.90;87.00;;;;;;5015181;28;20114;-46
2022/02/01 11:16:08;;;;;;;2.03;0.70;;;14.80;91.40;;;;;;5015359;28;20040;-46
2022/02/01 11:18:34;;;;;;;5.20;0.82;;;;;;;;;;5015026;28;20032;-46
2022/02/01 11:21:03;;;;;;;1.75;0.38;;;14.80;86.90;;;;;;5015279;28;20053;-45
2022/02/01 11:26:50;;;;;;;1.80;0.60;;;14.80;91.40;;;;;;5006149;28;20040;-45
2022/02/01 11:31:53;;;;;;;1.88;0.60;;;;;;;;;;5015319;28;20048;-45
2022/02/01 11:34:38;;;;;;;2.63;0.98;;;14.80;86.60;;;;;;5015057;28;20173;-45
2022/02/01 11:37:10;;;;;;;3.58;0.88;;;14.80;86.70;;;;;;5015296;28;20025;-45
2022/02/01 11:39:50;;;;;;;3.33;1.00;;;14.80;91.40;;;;;;5015184;28;20080;-44
2022/02/01 11:42:17;;;;;;;1.98;0.88;;;14.80;91.40;;;;;;5015005;28;20060;-44
2022/02/01 11:44:43;;;;;;;1.13;0.57;;;;;;;;;;5014660;28;20432;-44
2022/02/01 11:47:21;;;;;;;3.15;0.60;;;14.80;86.70;;;;;;5014512;28;20030;-44
2022/02/01 11:49:53;;;;;;;1.15;0.50;;;14.80;87.10;;;;;;5014410;28;20550;-45
2022/02/01 11:52:19;;;;;;;2.13;0.70;;;;;;;;;;5014463;28;20572;-44
2022/02/01 11:54:47;;;;;;;1.50;0.60;;;14.80;91.50;;;;;;5014616;28;20037;-44
2022/02/01 11:57:26;;;;;;;2.03;0.82;;;14.70;86.90;;;;;;5014875;28;20372;-44
2022/02/01 11:59:53;;;;;;;2.50;0.68;;;;;;;;;;5014548;28;20109;-46
2022/02/01 12:02:25;;;;;;;4.43;0.80;;;14.90;86.90;;;;;;5032071;28;20045;-46
2022/02/01 12:04:51;;;;;;;3.63;0.90;;;;;;;;;;5054117;28;20056;-46
2022/02/01 12:07:23;;;;;;;6.13;1.33;;;;;;;;;;5054035;28;20052;-47
2022/02/01 12:09:49;;;;;;;1.90;0.73;;;;;;;;;;5054024;28;20037;-47
2022/02/01 12:12:15;;;;;;;2.63;1.00;;;;;;;;;;5054209;28;20032;-46
2022/02/01 12:14:41;;;;;;;3.17;0.73;;;;;;;;;;5053818;28;20075;-47
2022/02/01 12:17:08;;;;;;;2.05;0.85;;;;;;;;;;5053930;28;20029;-47
2022/02/01 12:19:48;;;;;;;1.70;0.70;;;14.80;87.10;;;;;;5053868;28;20079;-46
2022/02/01 12:22:31;;;;;;;2.55;0.90;;;14.90;87.10;;;;;;5053879;28;20502;-47
2022/02/01 12:25:05;;;;;;;1.27;0.70;;;14.90;87.40;;;;;;5053892;28;20029;-47
2022/02/01 12:27:39;;;;;;;2.63;0.80;;;14.90;87.00;;;;;;5053545;28;20040;-47
2022/02/01 12:30:08;;;;;;;3.08;0.70;;;14.90;91.60;;;;;;5053354;28;20033;-46
2022/02/01 12:32:34;;;;;;;2.13;0.65;;;;;;;;;;5053558;28;20031;-47
2022/02/01 12:35:00;;;;;;;2.45;0.55;;;;;;;;;;5053896;28;20417;-47
2022/02/01 12:37:27;;;;;;;2.05;0.70;;;;;;;;;;5053611;28;20029;-47
2022/02/01 12:40:04;;;;;;;1.35;0.60;;;15.20;87.40;;;;;;5053795;28;20040;-47
2022/02/01 12:42:39;;;;;;;2.08;1.33;;;15.00;91.70;;;;;;5053761;28;20021;-47
2022/02/01 12:48:00;;;;;;;1.63;0.82;;;14.90;91.50;;;;;;5053633;28;20036;-46
2022/02/01 12:50:26;;;;;;;1.33;0.60;;;;;;;;;;5053390;28;20111;-47
2022/02/01 12:53:01;;;;;;;1.63;0.95;;;15.00;86.80;;;;;;5053293;28;20132;-47
2022/02/01 12:55:27;;;;;;;2.97;0.70;;;;;;;;;;5053848;28;20482;-44
2022/02/01 12:57:54;;;;;;;4.63;1.00;;;;;;;;;;5053318;28;20025;-45
2022/02/01 13:00:24;;;;;;;1.38;0.60;;;15.00;91.60;;;;;;5052868;28;20071;-44
2022/02/01 13:03:03;;;;;;;3.30;0.60;;;15.10;87.20;;;;;;5052829;28;20450;-44
2022/02/01 13:05:30;;;;;;;1.80;0.70;;;;;;;;;;5052989;28;20024;-44
2022/02/01 13:08:11;;;;;;;1.65;0.80;;;;;;;;;;5052904;28;20107;-44
2022/02/01 13:16:19;;;;;;;1.42;0.50;;;15.90;90.90;;;;;;5053185;28;20052;-46
2022/02/01 13:21:17;;;;;;;1.15;0.60;;;16.10;85.00;;;;;;5052934;28;20041;-47
2022/02/01 13:23:51;;;;;;;1.33;0.60;;;16.20;84.70;;;;;;5052642;28;20057;-47
2022/02/01 13:26:19;;;;;;;2.83;0.70;;;16.40;90.30;;;;;;5052692;28;20126;-46
2022/02/01 13:29:00;;;;;;;1.45;0.60;;;16.50;90.20;;;;;;5052503;28;20404;-47
2022/02/01 13:31:29;;;;;;;4.22;0.75;;;;;;;;;;5052633;28;20028;-46
2022/02/01 13:34:00;;;;;;;1.58;0.70;;;16.60;90.20;;;;;;5052833;28;20104;-47
2022/02/01 13:36:26;;;;;;;1.60;0.47;;;;;;;;;;5052613;28;20028;-46
2022/02/01 13:38:58;;;;;;;0.95;0.63;;;16.70;83.50;;;;;;5052542;28;20028;-47
2022/02/01 13:41:26;;;;;;;2.90;0.82;;;16.80;89.80;;;;;;5052501;28;20033;-46
2022/02/01 13:43:57;;;;;;;1.88;0.30;;;17.00;90.00;;;;;;5052401;28;20029;-46
2022/02/01 13:46:28;;;;;;;0.70;0.50;;;17.00;83.20;;;;;;5052330;28;20025;-47
2022/02/01 13:49:03;;;;;;;2.53;0.60;;;17.00;82.70;;;;;;5052393;28;20047;-47
2022/02/01 13:51:30;;;;;;;1.70;0.52;;;17.00;86.50;;;;;;5052360;28;20029;-44
2022/02/01 13:53:57;;;;;;;5.82;0.60;;;;;;;;;;5052261;28;20033;-45
2022/02/01 13:56:26;;;;;;;4.90;1.85;;;17.20;89.00;;;;;;5052151;28;20036;-44
2022/02/01 13:59:07;;;;;;;0.93;0.47;;;17.30;89.10;;;;;;5052323;28;20025;-46
2022/02/01 14:01:33;;;;;;;2.22;0.60;;;;;;;;;;5052209;28;20111;-45
2022/02/01 14:04:06;;;;;;;1.70;0.50;;;17.30;89.00;;;;;;5052402;28;20124;-46
2022/02/01 14:06:54;;;;;;;2.20;0.60;;;;;;;;;;5050674;28;20060;-45
2022/02/01 14:16:02;;;;;;;3.30;1.00;;;;;;;;;;5052005;28;20047;-45
2022/02/01 14:26:14;;;;;;;1.52;0.52;;;;;;;;;;5056096;28;20036;-45
2022/02/01 14:36:31;;;;;;;1.25;0.40;;;;;;;;;;5055856;28;20156;-46
2022/02/01 14:46:40;;;;;;;0.70;0.40;;;;;;;;;;5055673;28;20036;-46
2022/02/01 14:49:06;;;;;;;1.08;0.45;;;;;;;;;;5055542;28;20032;-45
2022/02/01 14:51:32;;;;;;;1.17;0.35;;;;;;;;;;5055524;28;20108;-45
2022/02/01 14:53:58;;;;;;;1.02;0.52;;;;;;;;;;5055551;28;20033;-46
2022/02/01 14:56:28;;;;;;;2.67;0.52;;;;;;;;;;5055308;28;20025;-45
2022/02/01 15:07:02;;;;;;;1.13;0.45;;;;;;;;;;5055597;28;20116;-45
2022/02/01 15:14:39;;;;;;;2.53;0.50;;;;;;;;;;5055351;28;20396;-47
2022/02/01 15:17:06;;;;;;;2.05;0.60;;;;;;;;;;5055283;28;20434;-46
2022/02/01 15:19:32;;;;;;;1.00;0.57;;;;;;;;;;5055038;28;20422;-45
2022/02/01 15:21:58;;;;;;;1.95;0.65;;;;;;;;;;5054972;28;20029;-46
2022/02/01 15:24:24;;;;;;;1.25;0.47;;;;;;;;;;5054875;28;20033;-45
2022/02/01 15:26:50;;;;;;;1.42;0.50;;;;;;;;;;5054222;28;20025;-45
2022/02/01 15:29:16;;;;;;;0.95;0.38;;;;;;;;;;5054728;28;20063;-47
2022/02/01 15:31:42;;;;;;;2.08;0.50;;;;;;;;;;5054716;28;20031;-45
2022/02/01 15:34:08;;;;;;;2.97;0.57;;;;;;;;;;5054814;28;20040;-46
2022/02/01 15:36:34;;;;;;;1.52;0.43;;;;;;;;;;5054570;28;20096;-45
2022/02/01 15:58:27;;;;;;;2.15;0.52;;;;;;;;;;5054591;28;20071;-45
2022/02/01 16:00:54;;;;;;;1.67;0.40;;;;;;;;;;5054402;28;20021;-47
2022/02/01 16:03:23;;;;;;;2.03;0.35;;;;;;;;;;5053919;28;20083;-47
2022/02/01 16:05:49;;;;;;;0.75;0.43;;;;;;;;;;5053980;28;20078;-47
2022/02/01 16:08:50;;;;;;;0.52;0.32;;;18.80;84.10;;;;;;5054327;28;20025;-47
2022/02/01 16:11:10;;;;;;;1.33;0.60;;;;;;;;;;5050850;28;20506;-47
2022/02/01 16:13:39;;;;;;;1.50;0.47;;;;;;;;;;5054075;28;20032;-48
2022/02/01 16:16:10;;;;;;;1.70;0.73;;;18.80;88.00;;;;;;5054253;28;20032;-47
2022/02/01 16:18:37;;;;;;;1.77;0.60;;;18.70;87.80;;;;;;5053894;28;20111;-47
2022/02/01 16:21:03;;;;;;;1.23;0.57;;;18.60;84.30;;;;;;5054488;28;20036;-47
2022/02/01 16:23:29;;;;;;;1.88;0.68;;;;;;;;;;5053871;28;20039;-48
2022/02/01 16:25:55;;;;;;;1.13;0.60;;;;;;;;;;5053821;28;20021;-47
2022/02/01 16:28:22;;;;;;;2.47;0.60;;;;;;;;;;5053701;28;20036;-47
2022/02/01 16:30:49;;;;;;;0.82;0.30;;;;;;;;;;5053714;28;20037;-49
2022/02/01 16:33:15;;;;;;;3.13;0.50;;;;;;;;;;5053659;28;20474;-47
2022/02/01 16:35:41;;;;;;;5.68;0.57;;;;;;;;;;5053707;28;20029;-48
2022/02/01 16:38:07;;;;;;;2.83;0.63;;;;;;;;;;5052963;28;20025;-48
2022/02/01 16:40:36;;;;;;;1.88;0.85;;;18.40;86.20;;;;;;5053196;28;20063;-47
2022/02/01 16:43:07;;;;;;;1.77;0.55;;;;;;;;;;5053517;28;20075;-48
2022/02/01 16:45:33;;;;;;;3.83;0.80;;;;;;;;;;5053789;28;20040;-49
2022/02/01 16:48:02;;;;;;;2.63;0.60;;;;;;;;;;5053254;28;20025;-48
2022/02/01 16:50:28;;;;;;;1.40;0.57;;;;;;;;;;5053713;28;20032;-47
2022/02/01 16:53:06;;;;;;;1.35;0.70;;;18.30;84.60;;;;;;5053298;28;20474;-47
2022/02/01 16:55:47;;;;;;;2.50;0.70;;;;;;;;;;5053629;28;20029;-47
2022/02/01 16:58:31;;;;;;;2.58;0.68;;;;;;;;;;5053312;28;20036;-47